Terminal Aerodrome Forecast
Issued by NWS

Home | Current Version | Previous Version | Graphics & Text | Print | Product List | Glossary On
Versions: 1 2 3 4 5 6 7 8 9 10 11 12 13 14 15
661
FTUS43 KICT 271742
TAFSLN
TAF
KSLN 271742Z 2718/2818 14015KT P6SM VCSH SCT025 BKN060
      TEMPO 2718/2719 BKN025
     FM271900 15012KT P6SM VCTS SCT015 BKN035CB
      TEMPO 2719/2723 VRB25G35KT 4SM TSRA BKN015CB
     FM280200 VRB05KT P6SM SCT040=

USA.gov is the U.S. government's official web portal to all federal, state and local government web resources and services.